sensor_id;sensor_type;location;lat;lon;timestamp;temperature;humidity
39777;DHT22;25453;48.162;14.510;2022-11-18T00:01:48;9.00;81.60
39777;DHT22;25453;48.162;14.510;2022-11-18T00:04:16;9.00;81.50
39777;DHT22;25453;48.162;14.510;2022-11-18T00:06:44;9.00;81.50
39777;DHT22;25453;48.162;14.510;2022-11-18T00:09:18;9.00;81.30
39777;DHT22;25453;48.162;14.510;2022-11-18T00:11:54;9.00;81.20
39777;DHT22;25453;48.162;14.510;2022-11-18T00:14:45;8.90;81.30
39777;DHT22;25453;48.162;14.510;2022-11-18T00:17:13;8.90;81.10
39777;DHT22;25453;48.162;14.510;2022-11-18T00:19:46;8.90;81.50
39777;DHT22;25453;48.162;14.510;2022-11-18T00:22:14;8.90;81.60
39777;DHT22;25453;48.162;14.510;2022-11-18T00:24:55;8.90;81.60
39777;DHT22;25453;48.162;14.510;2022-11-18T00:27:29;8.90;81.60
39777;DHT22;25453;48.162;14.510;2022-11-18T00:30:11;8.80;81.70
39777;DHT22;25453;48.162;14.510;2022-11-18T00:32:38;8.80;81.60
39777;DHT22;25453;48.162;14.510;2022-11-18T00:35:12;8.80;81.70
39777;DHT22;25453;48.162;14.510;2022-11-18T00:37:40;8.80;81.70
39777;DHT22;25453;48.162;14.510;2022-11-18T00:40:14;8.80;81.80
39777;DHT22;25453;48.162;14.510;2022-11-18T00:42:42;8.80;81.90
39777;DHT22;25453;48.162;14.510;2022-11-18T00:45:24;8.80;82.00
39777;DHT22;25453;48.162;14.510;2022-11-18T00:47:51;8.80;82.00
39777;DHT22;25453;48.162;14.510;2022-11-18T00:50:25;8.80;82.00
39777;DHT22;25453;48.162;14.510;2022-11-18T00:52:53;8.80;82.10
39777;DHT22;25453;48.162;14.510;2022-11-18T00:55:27;8.80;82.20
39777;DHT22;25453;48.162;14.510;2022-11-18T00:58:02;8.80;82.10
39777;DHT22;25453;48.162;14.510;2022-11-18T01:00:29;8.80;82.10
39777;DHT22;25453;48.162;14.510;2022-11-18T01:03:02;8.80;82.10
39777;DHT22;25453;48.162;14.510;2022-11-18T01:05:29;8.80;82.10
39777;DHT22;25453;48.162;14.510;2022-11-18T01:08:06;8.80;82.30
39777;DHT22;25453;48.162;14.510;2022-11-18T01:10:34;8.80;82.30
39777;DHT22;25453;48.162;14.510;2022-11-18T01:13:15;8.80;82.50
39777;DHT22;25453;48.162;14.510;2022-11-18T01:15:51;8.80;82.40
39777;DHT22;25453;48.162;14.510;2022-11-18T01:18:29;8.80;82.50
39777;DHT22;25453;48.162;14.510;2022-11-18T01:21:01;8.80;82.40
39777;DHT22;25453;48.162;14.510;2022-11-18T01:23:37;8.80;82.40
39777;DHT22;25453;48.162;14.510;2022-11-18T01:26:19;8.80;82.50
39777;DHT22;25453;48.162;14.510;2022-11-18T01:28:59;8.80;82.60
39777;DHT22;25453;48.162;14.510;2022-11-18T01:31:34;8.80;82.50
39777;DHT22;25453;48.162;14.510;2022-11-18T01:34:01;8.80;82.70
39777;DHT22;25453;48.162;14.510;2022-11-18T01:36:36;8.80;82.80
39777;DHT22;25453;48.162;14.510;2022-11-18T01:39:04;8.80;82.90
39777;DHT22;25453;48.162;14.510;2022-11-18T01:41:37;8.80;82.90
39777;DHT22;25453;48.162;14.510;2022-11-18T01:47:18;8.90;82.90
39777;DHT22;25453;48.162;14.510;2022-11-18T01:49:45;8.90;82.90
39777;DHT22;25453;48.162;14.510;2022-11-18T01:52:14;8.90;83.00
39777;DHT22;25453;48.162;14.510;2022-11-18T01:54:52;8.90;83.00
39777;DHT22;25453;48.162;14.510;2022-11-18T01:57:29;8.90;83.00
39777;DHT22;25453;48.162;14.510;2022-11-18T02:00:05;8.90;82.80
39777;DHT22;25453;48.162;14.510;2022-11-18T02:02:36;8.80;82.90
39777;DHT22;25453;48.162;14.510;2022-11-18T02:05:11;8.80;83.00
39777;DHT22;25453;48.162;14.510;2022-11-18T02:07:41;8.80;83.10
39777;DHT22;25453;48.162;14.510;2022-11-18T02:10:21;8.90;83.20
39777;DHT22;25453;48.162;14.510;2022-11-18T02:12:50;8.90;83.20
39777;DHT22;25453;48.162;14.510;2022-11-18T02:18:59;8.90;83.30
39777;DHT22;25453;48.162;14.510;2022-11-18T02:21:50;8.90;83.40
39777;DHT22;25453;48.162;14.510;2022-11-18T02:28:15;9.00;83.30
39777;DHT22;25453;48.162;14.510;2022-11-18T02:31:14;9.00;83.10
39777;DHT22;25453;48.162;14.510;2022-11-18T02:39:59;9.00;83.10
39777;DHT22;25453;48.162;14.510;2022-11-18T02:42:30;9.00;83.10
39777;DHT22;25453;48.162;14.510;2022-11-18T02:45:09;8.90;83.00
39777;DHT22;25453;48.162;14.510;2022-11-18T02:47:42;8.90;82.70
39777;DHT22;25453;48.162;14.510;2022-11-18T02:50:23;8.90;82.90
39777;DHT22;25453;48.162;14.510;2022-11-18T02:52:55;8.90;83.20
39777;DHT22;25453;48.162;14.510;2022-11-18T02:55:34;8.90;83.40
39777;DHT22;25453;48.162;14.510;2022-11-18T02:58:09;8.90;83.40
39777;DHT22;25453;48.162;14.510;2022-11-18T03:00:51;9.00;83.30
39777;DHT22;25453;48.162;14.510;2022-11-18T03:08:58;9.00;83.20
39777;DHT22;25453;48.162;14.510;2022-11-18T03:14:50;9.00;83.30
39777;DHT22;25453;48.162;14.510;2022-11-18T03:18:27;9.00;83.40
39777;DHT22;25453;48.162;14.510;2022-11-18T03:20:37;9.10;83.40
39777;DHT22;25453;48.162;14.510;2022-11-18T03:23:28;9.10;83.40
39777;DHT22;25453;48.162;14.510;2022-11-18T03:26:05;9.10;83.30
39777;DHT22;25453;48.162;14.510;2022-11-18T03:28:48;9.10;83.20
39777;DHT22;25453;48.162;14.510;2022-11-18T03:31:28;9.10;83.30
39777;DHT22;25453;48.162;14.510;2022-11-18T03:34:19;9.00;83.20
39777;DHT22;25453;48.162;14.510;2022-11-18T03:37:00;9.00;83.20
39777;DHT22;25453;48.162;14.510;2022-11-18T03:39:38;8.90;83.10
39777;DHT22;25453;48.162;14.510;2022-11-18T03:42:40;8.90;83.20
39777;DHT22;25453;48.162;14.510;2022-11-18T03:45:17;8.80;83.40
39777;DHT22;25453;48.162;14.510;2022-11-18T03:48:06;8.80;83.60
39777;DHT22;25453;48.162;14.510;2022-11-18T03:50:40;8.90;83.70
39777;DHT22;25453;48.162;14.510;2022-11-18T03:53:16;8.90;83.70
39777;DHT22;25453;48.162;14.510;2022-11-18T03:55:49;8.90;83.70
39777;DHT22;25453;48.162;14.510;2022-11-18T04:01:40;8.90;83.70
39777;DHT22;25453;48.162;14.510;2022-11-18T04:04:16;8.90;83.60
39777;DHT22;25453;48.162;14.510;2022-11-18T04:06:53;8.90;83.50
39777;DHT22;25453;48.162;14.510;2022-11-18T04:09:36;9.00;83.50
39777;DHT22;25453;48.162;14.510;2022-11-18T04:12:07;9.00;83.50
39777;DHT22;25453;48.162;14.510;2022-11-18T04:14:44;9.00;83.50
39777;DHT22;25453;48.162;14.510;2022-11-18T04:17:20;9.00;83.50
39777;DHT22;25453;48.162;14.510;2022-11-18T04:19:55;9.00;83.30
39777;DHT22;25453;48.162;14.510;2022-11-18T04:22:29;9.00;83.20
39777;DHT22;25453;48.162;14.510;2022-11-18T04:24:56;9.00;83.20
39777;DHT22;25453;48.162;14.510;2022-11-18T04:27:36;9.00;83.30
39777;DHT22;25453;48.162;14.510;2022-11-18T04:30:17;9.00;83.40
39777;DHT22;25453;48.162;14.510;2022-11-18T04:32:45;9.00;83.30
39777;DHT22;25453;48.162;14.510;2022-11-18T04:35:19;9.00;83.10
39777;DHT22;25453;48.162;14.510;2022-11-18T04:37:47;9.00;82.90
39777;DHT22;25453;48.162;14.510;2022-11-18T04:40:21;9.00;82.80
39777;DHT22;25453;48.162;14.510;2022-11-18T04:42:55;9.00;82.90
39777;DHT22;25453;48.162;14.510;2022-11-18T04:45:29;9.00;83.00
39777;DHT22;25453;48.162;14.510;2022-11-18T04:47:57;9.00;82.90
39777;DHT22;25453;48.162;14.510;2022-11-18T04:50:30;9.00;82.60
39777;DHT22;25453;48.162;14.510;2022-11-18T04:52:58;9.00;82.90
39777;DHT22;25453;48.162;14.510;2022-11-18T04:55:35;9.00;82.80
39777;DHT22;25453;48.162;14.510;2022-11-18T04:58:09;9.00;82.60
39777;DHT22;25453;48.162;14.510;2022-11-18T05:00:45;9.00;82.50
39777;DHT22;25453;48.162;14.510;2022-11-18T05:03:14;9.00;82.60
39777;DHT22;25453;48.162;14.510;2022-11-18T05:05:49;9.00;82.60
39777;DHT22;25453;48.162;14.510;2022-11-18T05:08:16;9.00;82.60
39777;DHT22;25453;48.162;14.510;2022-11-18T05:10:50;9.00;82.60
39777;DHT22;25453;48.162;14.510;2022-11-18T05:13:45;9.00;82.70
39777;DHT22;25453;48.162;14.510;2022-11-18T05:16:19;9.00;82.80
39777;DHT22;25453;48.162;14.510;2022-11-18T05:18:54;9.10;82.90
39777;DHT22;25453;48.162;14.510;2022-11-18T05:21:28;9.10;82.90
39777;DHT22;25453;48.162;14.510;2022-11-18T05:24:03;9.10;82.90
39777;DHT22;25453;48.162;14.510;2022-11-18T05:26:31;9.20;82.80
39777;DHT22;25453;48.162;14.510;2022-11-18T05:29:12;9.20;82.80
39777;DHT22;25453;48.162;14.510;2022-11-18T05:31:39;9.20;82.60
39777;DHT22;25453;48.162;14.510;2022-11-18T05:34:14;9.20;82.50
39777;DHT22;25453;48.162;14.510;2022-11-18T05:36:42;9.20;82.40
39777;DHT22;25453;48.162;14.510;2022-11-18T05:39:16;9.20;82.40
39777;DHT22;25453;48.162;14.510;2022-11-18T05:41:44;9.20;82.50
39777;DHT22;25453;48.162;14.510;2022-11-18T05:44:35;9.20;82.30
39777;DHT22;25453;48.162;14.510;2022-11-18T05:47:03;9.10;82.20
39777;DHT22;25453;48.162;14.510;2022-11-18T05:49:30;9.10;82.20
39777;DHT22;25453;48.162;14.510;2022-11-18T05:52:04;9.10;82.30
39777;DHT22;25453;48.162;14.510;2022-11-18T05:54:48;9.10;82.30
39777;DHT22;25453;48.162;14.510;2022-11-18T05:57:23;9.00;82.30
39777;DHT22;25453;48.162;14.510;2022-11-18T05:59:50;9.00;82.30
39777;DHT22;25453;48.162;14.510;2022-11-18T06:02:24;9.00;82.40
39777;DHT22;25453;48.162;14.510;2022-11-18T06:04:58;9.00;82.40
39777;DHT22;25453;48.162;14.510;2022-11-18T06:07:41;9.00;82.50
39777;DHT22;25453;48.162;14.510;2022-11-18T06:10:18;9.00;82.80
39777;DHT22;25453;48.162;14.510;2022-11-18T06:12:55;9.00;82.90
39777;DHT22;25453;48.162;14.510;2022-11-18T06:15:30;9.10;83.00
39777;DHT22;25453;48.162;14.510;2022-11-18T06:18:17;9.10;83.00
39777;DHT22;25453;48.162;14.510;2022-11-18T06:20:46;9.10;82.90
39777;DHT22;25453;48.162;14.510;2022-11-18T06:23:22;9.10;82.90
39777;DHT22;25453;48.162;14.510;2022-11-18T06:25:49;9.20;82.90
39777;DHT22;25453;48.162;14.510;2022-11-18T06:28:24;9.20;83.00
39777;DHT22;25453;48.162;14.510;2022-11-18T06:30:59;9.20;82.80
39777;DHT22;25453;48.162;14.510;2022-11-18T06:33:33;9.20;82.80
39777;DHT22;25453;48.162;14.510;2022-11-18T06:36:02;9.20;82.90
39777;DHT22;25453;48.162;14.510;2022-11-18T06:38:36;9.20;83.00
39777;DHT22;25453;48.162;14.510;2022-11-18T06:41:04;9.20;83.00
39777;DHT22;25453;48.162;14.510;2022-11-18T06:43:38;9.20;83.00
39777;DHT22;25453;48.162;14.510;2022-11-18T06:46:10;9.20;82.90
39777;DHT22;25453;48.162;14.510;2022-11-18T06:49:03;9.20;82.90
39777;DHT22;25453;48.162;14.510;2022-11-18T06:51:31;9.20;82.90
39777;DHT22;25453;48.162;14.510;2022-11-18T06:54:05;9.20;82.90
39777;DHT22;25453;48.162;14.510;2022-11-18T06:56:38;9.30;82.90
39777;DHT22;25453;48.162;14.510;2022-11-18T06:59:06;9.30;82.80
39777;DHT22;25453;48.162;14.510;2022-11-18T07:01:40;9.30;82.90
39777;DHT22;25453;48.162;14.510;2022-11-18T07:04:08;9.30;82.90
39777;DHT22;25453;48.162;14.510;2022-11-18T07:06:43;9.30;82.90
39777;DHT22;25453;48.162;14.510;2022-11-18T07:09:10;9.30;82.90
39777;DHT22;25453;48.162;14.510;2022-11-18T07:11:45;9.20;82.80
39777;DHT22;25453;48.162;14.510;2022-11-18T07:14:12;9.20;82.90
39777;DHT22;25453;48.162;14.510;2022-11-18T07:16:47;9.20;83.00
39777;DHT22;25453;48.162;14.510;2022-11-18T07:19:14;9.30;83.10
39777;DHT22;25453;48.162;14.510;2022-11-18T07:21:48;9.30;83.00
39777;DHT22;25453;48.162;14.510;2022-11-18T07:24:16;9.30;83.10
39777;DHT22;25453;48.162;14.510;2022-11-18T07:26:57;9.30;83.00
39777;DHT22;25453;48.162;14.510;2022-11-18T07:29:38;9.20;83.00
39777;DHT22;25453;48.162;14.510;2022-11-18T07:32:11;9.20;83.10
39777;DHT22;25453;48.162;14.510;2022-11-18T07:34:45;9.20;83.00
39777;DHT22;25453;48.162;14.510;2022-11-18T07:37:19;9.20;83.00
39777;DHT22;25453;48.162;14.510;2022-11-18T07:39:47;9.10;83.10
39777;DHT22;25453;48.162;14.510;2022-11-18T07:42:14;9.10;83.10
39777;DHT22;25453;48.162;14.510;2022-11-18T07:44:49;9.00;83.20
39777;DHT22;25453;48.162;14.510;2022-11-18T07:47:22;9.00;83.40
39777;DHT22;25453;48.162;14.510;2022-11-18T07:49:56;9.00;83.60
39777;DHT22;25453;48.162;14.510;2022-11-18T07:52:24;9.00;83.70
39777;DHT22;25453;48.162;14.510;2022-11-18T07:54:51;9.10;83.70
39777;DHT22;25453;48.162;14.510;2022-11-18T07:57:24;9.10;83.60
39777;DHT22;25453;48.162;14.510;2022-11-18T07:59:58;9.00;83.70
39777;DHT22;25453;48.162;14.510;2022-11-18T08:02:26;9.10;83.80
39777;DHT22;25453;48.162;14.510;2022-11-18T08:04:59;9.10;83.90
39777;DHT22;25453;48.162;14.510;2022-11-18T08:07:38;9.00;83.80
39777;DHT22;25453;48.162;14.510;2022-11-18T08:10:13;9.00;84.00
39777;DHT22;25453;48.162;14.510;2022-11-18T08:12:46;9.10;84.20
39777;DHT22;25453;48.162;14.510;2022-11-18T08:15:14;9.10;84.10
39777;DHT22;25453;48.162;14.510;2022-11-18T08:17:49;9.10;84.10
39777;DHT22;25453;48.162;14.510;2022-11-18T08:20:16;9.10;84.20
39777;DHT22;25453;48.162;14.510;2022-11-18T08:22:44;9.10;84.30
39777;DHT22;25453;48.162;14.510;2022-11-18T08:25:17;9.10;84.20
39777;DHT22;25453;48.162;14.510;2022-11-18T08:27:51;9.10;84.20
39777;DHT22;25453;48.162;14.510;2022-11-18T08:30:34;9.10;84.20
39777;DHT22;25453;48.162;14.510;2022-11-18T08:33:02;9.10;84.40
39777;DHT22;25453;48.162;14.510;2022-11-18T08:35:36;9.10;84.50
39777;DHT22;25453;48.162;14.510;2022-11-18T08:38:03;9.10;84.50
39777;DHT22;25453;48.162;14.510;2022-11-18T08:40:39;9.20;84.60
39777;DHT22;25453;48.162;14.510;2022-11-18T08:43:16;9.20;84.70
39777;DHT22;25453;48.162;14.510;2022-11-18T08:45:44;9.20;84.80
39777;DHT22;25453;48.162;14.510;2022-11-18T08:48:18;9.20;84.80
39777;DHT22;25453;48.162;14.510;2022-11-18T08:50:45;9.30;84.90
39777;DHT22;25453;48.162;14.510;2022-11-18T08:53:18;9.30;84.90
39777;DHT22;25453;48.162;14.510;2022-11-18T08:55:45;9.40;85.00
39777;DHT22;25453;48.162;14.510;2022-11-18T08:58:24;9.40;85.10
39777;DHT22;25453;48.162;14.510;2022-11-18T09:00:52;9.40;85.10
39777;DHT22;25453;48.162;14.510;2022-11-18T09:03:27;9.50;85.00
39777;DHT22;25453;48.162;14.510;2022-11-18T09:06:11;9.50;85.10
39777;DHT22;25453;48.162;14.510;2022-11-18T09:08:46;9.50;85.10
39777;DHT22;25453;48.162;14.510;2022-11-18T09:11:23;9.50;85.00
39777;DHT22;25453;48.162;14.510;2022-11-18T09:13:52;9.60;85.20
39777;DHT22;25453;48.162;14.510;2022-11-18T09:16:47;9.60;85.30
39777;DHT22;25453;48.162;14.510;2022-11-18T09:19:20;9.70;85.40
39777;DHT22;25453;48.162;14.510;2022-11-18T09:22:08;9.70;85.40
39777;DHT22;25453;48.162;14.510;2022-11-18T09:24:49;9.70;85.50
39777;DHT22;25453;48.162;14.510;2022-11-18T09:27:23;9.80;85.40
39777;DHT22;25453;48.162;14.510;2022-11-18T09:29:56;9.80;85.50
39777;DHT22;25453;48.162;14.510;2022-11-18T09:32:32;9.80;85.50
39777;DHT22;25453;48.162;14.510;2022-11-18T09:35:05;9.80;85.60
39777;DHT22;25453;48.162;14.510;2022-11-18T09:37:33;9.90;85.60
39777;DHT22;25453;48.162;14.510;2022-11-18T09:40:13;9.90;85.60
39777;DHT22;25453;48.162;14.510;2022-11-18T09:43:01;9.90;85.60
39777;DHT22;25453;48.162;14.510;2022-11-18T09:45:43;9.90;85.70
39777;DHT22;25453;48.162;14.510;2022-11-18T09:48:18;9.90;85.70
39777;DHT22;25453;48.162;14.510;2022-11-18T09:50:53;9.90;85.70
39777;DHT22;25453;48.162;14.510;2022-11-18T09:53:24;9.90;85.70
39777;DHT22;25453;48.162;14.510;2022-11-18T09:55:58;9.90;85.80
39777;DHT22;25453;48.162;14.510;2022-11-18T09:58:32;10.00;85.90
39777;DHT22;25453;48.162;14.510;2022-11-18T10:01:17;10.00;85.90
39777;DHT22;25453;48.162;14.510;2022-11-18T10:03:53;10.00;85.90
39777;DHT22;25453;48.162;14.510;2022-11-18T10:06:28;10.00;85.90
39777;DHT22;25453;48.162;14.510;2022-11-18T10:09:29;10.00;85.90
39777;DHT22;25453;48.162;14.510;2022-11-18T10:15:15;10.00;86.00
39777;DHT22;25453;48.162;14.510;2022-11-18T10:23:25;10.00;86.10
39777;DHT22;25453;48.162;14.510;2022-11-18T10:25:56;10.00;86.20
39777;DHT22;25453;48.162;14.510;2022-11-18T10:28:38;10.00;86.30
39777;DHT22;25453;48.162;14.510;2022-11-18T10:31:12;10.00;86.30
39777;DHT22;25453;48.162;14.510;2022-11-18T10:33:41;10.00;86.40
39777;DHT22;25453;48.162;14.510;2022-11-18T10:39:11;10.10;86.50
39777;DHT22;25453;48.162;14.510;2022-11-18T10:41:48;10.10;86.50
39777;DHT22;25453;48.162;14.510;2022-11-18T10:44:31;10.10;86.60
39777;DHT22;25453;48.162;14.510;2022-11-18T10:47:27;10.10;86.60
39777;DHT22;25453;48.162;14.510;2022-11-18T10:52:54;10.20;86.60
39777;DHT22;25453;48.162;14.510;2022-11-18T10:55:29;10.20;86.70
39777;DHT22;25453;48.162;14.510;2022-11-18T10:58:09;10.20;86.70
39777;DHT22;25453;48.162;14.510;2022-11-18T11:00:49;10.20;86.70
39777;DHT22;25453;48.162;14.510;2022-11-18T11:03:30;10.20;86.80
39777;DHT22;25453;48.162;14.510;2022-11-18T11:06:22;10.20;86.80
39777;DHT22;25453;48.162;14.510;2022-11-18T11:11:55;10.30;86.80
39777;DHT22;25453;48.162;14.510;2022-11-18T11:14:36;10.30;86.80
39777;DHT22;25453;48.162;14.510;2022-11-18T11:20:24;10.30;86.80
39777;DHT22;25453;48.162;14.510;2022-11-18T11:22:59;10.30;86.90
39777;DHT22;25453;48.162;14.510;2022-11-18T11:25:34;10.30;87.00
39777;DHT22;25453;48.162;14.510;2022-11-18T11:31:42;10.30;87.10
39777;DHT22;25453;48.162;14.510;2022-11-18T11:35:11;10.30;87.00
39777;DHT22;25453;48.162;14.510;2022-11-18T11:37:20;10.40;87.00
39777;DHT22;25453;48.162;14.510;2022-11-18T11:40:25;10.40;87.10
39777;DHT22;25453;48.162;14.510;2022-11-18T11:43:41;10.40;87.20
39777;DHT22;25453;48.162;14.510;2022-11-18T11:46:25;10.40;87.10
39777;DHT22;25453;48.162;14.510;2022-11-18T11:49:18;10.40;87.10
39777;DHT22;25453;48.162;14.510;2022-11-18T11:52:15;10.40;87.10
39777;DHT22;25453;48.162;14.510;2022-11-18T11:57:40;10.50;87.10
39777;DHT22;25453;48.162;14.510;2022-11-18T12:00:16;10.40;87.10
39777;DHT22;25453;48.162;14.510;2022-11-18T12:03:03;10.40;87.00
39777;DHT22;25453;48.162;14.510;2022-11-18T12:05:36;10.40;87.10
39777;DHT22;25453;48.162;14.510;2022-11-18T12:08:27;10.40;86.90
39777;DHT22;25453;48.162;14.510;2022-11-18T12:11:14;10.40;86.90
39777;DHT22;25453;48.162;14.510;2022-11-18T12:13:52;10.40;86.90
39777;DHT22;25453;48.162;14.510;2022-11-18T12:19:43;10.40;86.70
39777;DHT22;25453;48.162;14.510;2022-11-18T12:22:16;10.40;86.40
39777;DHT22;25453;48.162;14.510;2022-11-18T12:24:44;10.40;86.30
39777;DHT22;25453;48.162;14.510;2022-11-18T12:30:03;10.40;86.10
39777;DHT22;25453;48.162;14.510;2022-11-18T12:32:41;10.30;86.10
39777;DHT22;25453;48.162;14.510;2022-11-18T12:35:22;10.40;86.10
39777;DHT22;25453;48.162;14.510;2022-11-18T12:37:58;10.30;86.00
39777;DHT22;25453;48.162;14.510;2022-11-18T12:40:42;10.30;85.90
39777;DHT22;25453;48.162;14.510;2022-11-18T12:51:58;10.20;85.50
39777;DHT22;25453;48.162;14.510;2022-11-18T12:54:45;10.20;85.40
39777;DHT22;25453;48.162;14.510;2022-11-18T12:57:31;10.20;85.30
39777;DHT22;25453;48.162;14.510;2022-11-18T13:00:28;10.20;85.30
39777;DHT22;25453;48.162;14.510;2022-11-18T13:03:04;10.20;85.30
39777;DHT22;25453;48.162;14.510;2022-11-18T13:05:34;10.20;85.30
39777;DHT22;25453;48.162;14.510;2022-11-18T13:08:10;10.20;85.20
39777;DHT22;25453;48.162;14.510;2022-11-18T13:10:53;10.20;85.10
39777;DHT22;25453;48.162;14.510;2022-11-18T13:13:52;10.20;85.10
39777;DHT22;25453;48.162;14.510;2022-11-18T13:16:41;10.20;84.90
39777;DHT22;25453;48.162;14.510;2022-11-18T13:19:55;10.20;84.70
39777;DHT22;25453;48.162;14.510;2022-11-18T13:22:25;10.20;84.70
39777;DHT22;25453;48.162;14.510;2022-11-18T13:25:22;10.20;84.60
39777;DHT22;25453;48.162;14.510;2022-11-18T13:31:11;10.10;84.70
39777;DHT22;25453;48.162;14.510;2022-11-18T13:33:48;10.10;84.70
39777;DHT22;25453;48.162;14.510;2022-11-18T13:36:24;10.10;84.60
39777;DHT22;25453;48.162;14.510;2022-11-18T13:39:02;10.10;84.30
39777;DHT22;25453;48.162;14.510;2022-11-18T13:41:37;10.10;84.20
39777;DHT22;25453;48.162;14.510;2022-11-18T13:44:18;10.10;84.10
39777;DHT22;25453;48.162;14.510;2022-11-18T13:47:11;10.10;84.10
39777;DHT22;25453;48.162;14.510;2022-11-18T13:50:11;10.10;84.10
39777;DHT22;25453;48.162;14.510;2022-11-18T13:55:50;10.10;84.10
39777;DHT22;25453;48.162;14.510;2022-11-18T13:58:23;10.10;84.10
39777;DHT22;25453;48.162;14.510;2022-11-18T14:01:27;10.10;84.00
39777;DHT22;25453;48.162;14.510;2022-11-18T14:03:57;10.10;83.90
39777;DHT22;25453;48.162;14.510;2022-11-18T14:06:39;10.10;83.90
39777;DHT22;25453;48.162;14.510;2022-11-18T14:14:36;10.10;83.90
39777;DHT22;25453;48.162;14.510;2022-11-18T14:17:17;10.10;83.70
39777;DHT22;25453;48.162;14.510;2022-11-18T14:19:48;10.10;83.80
39777;DHT22;25453;48.162;14.510;2022-11-18T14:22:25;10.20;85.00
39777;DHT22;25453;48.162;14.510;2022-11-18T14:25:02;10.20;84.10
39777;DHT22;25453;48.162;14.510;2022-11-18T14:27:46;10.20;83.70
39777;DHT22;25453;48.162;14.510;2022-11-18T14:30:40;10.20;83.60
39777;DHT22;25453;48.162;14.510;2022-11-18T14:33:21;10.10;83.50
39777;DHT22;25453;48.162;14.510;2022-11-18T14:36:00;10.10;83.30
39777;DHT22;25453;48.162;14.510;2022-11-18T14:38:35;10.10;83.30
39777;DHT22;25453;48.162;14.510;2022-11-18T14:41:30;10.00;83.30
39777;DHT22;25453;48.162;14.510;2022-11-18T14:44:13;10.00;83.20
39777;DHT22;25453;48.162;14.510;2022-11-18T14:47:00;9.90;83.20
39777;DHT22;25453;48.162;14.510;2022-11-18T14:49:29;9.90;83.30
39777;DHT22;25453;48.162;14.510;2022-11-18T14:52:04;9.90;83.30
39777;DHT22;25453;48.162;14.510;2022-11-18T14:54:32;9.90;83.20
39777;DHT22;25453;48.162;14.510;2022-11-18T14:57:09;9.80;83.40
39777;DHT22;25453;48.162;14.510;2022-11-18T14:59:37;9.80;83.20
39777;DHT22;25453;48.162;14.510;2022-11-18T15:02:15;9.80;83.10
39777;DHT22;25453;48.162;14.510;2022-11-18T15:04:50;9.80;83.20
39777;DHT22;25453;48.162;14.510;2022-11-18T15:07:24;9.80;83.10
39777;DHT22;25453;48.162;14.510;2022-11-18T15:09:52;9.80;83.10
39777;DHT22;25453;48.162;14.510;2022-11-18T15:12:28;9.80;83.00
39777;DHT22;25453;48.162;14.510;2022-11-18T15:14:56;9.70;82.90
39777;DHT22;25453;48.162;14.510;2022-11-18T15:17:30;9.70;82.80
39777;DHT22;25453;48.162;14.510;2022-11-18T15:19:57;9.70;82.70
39777;DHT22;25453;48.162;14.510;2022-11-18T15:22:28;9.70;82.80
39777;DHT22;25453;48.162;14.510;2022-11-18T15:25:01;9.70;82.80
39777;DHT22;25453;48.162;14.510;2022-11-18T15:27:36;9.70;82.80
39777;DHT22;25453;48.162;14.510;2022-11-18T15:30:16;9.70;82.80
39777;DHT22;25453;48.162;14.510;2022-11-18T15:32:50;9.70;82.90
39777;DHT22;25453;48.162;14.510;2022-11-18T15:35:24;9.70;82.80
39777;DHT22;25453;48.162;14.510;2022-11-18T15:37:52;9.70;83.00
39777;DHT22;25453;48.162;14.510;2022-11-18T15:40:25;9.70;83.00
39777;DHT22;25453;48.162;14.510;2022-11-18T15:42:53;9.70;82.90
39777;DHT22;25453;48.162;14.510;2022-11-18T15:45:26;9.70;83.00
39777;DHT22;25453;48.162;14.510;2022-11-18T15:47:54;9.70;82.90
39777;DHT22;25453;48.162;14.510;2022-11-18T15:50:28;9.60;82.70
39777;DHT22;25453;48.162;14.510;2022-11-18T15:52:56;9.60;82.60
39777;DHT22;25453;48.162;14.510;2022-11-18T15:55:29;9.60;82.70
39777;DHT22;25453;48.162;14.510;2022-11-18T15:57:57;9.50;82.70
39777;DHT22;25453;48.162;14.510;2022-11-18T16:00:24;9.50;82.60
39777;DHT22;25453;48.162;14.510;2022-11-18T16:02:58;9.50;82.70
39777;DHT22;25453;48.162;14.510;2022-11-18T16:05:32;9.50;82.70
39777;DHT22;25453;48.162;14.510;2022-11-18T16:08:00;9.50;82.80
39777;DHT22;25453;48.162;14.510;2022-11-18T16:10:33;9.40;82.70
39777;DHT22;25453;48.162;14.510;2022-11-18T16:13:27;9.40;82.80
39777;DHT22;25453;48.162;14.510;2022-11-18T16:15:54;9.40;82.80
39777;DHT22;25453;48.162;14.510;2022-11-18T16:18:28;9.30;82.90
39777;DHT22;25453;48.162;14.510;2022-11-18T16:20:57;9.30;82.90
39777;DHT22;25453;48.162;14.510;2022-11-18T16:23:26;9.30;83.00
39777;DHT22;25453;48.162;14.510;2022-11-18T16:26:00;9.30;82.90
39777;DHT22;25453;48.162;14.510;2022-11-18T16:28:27;9.30;82.80
39777;DHT22;25453;48.162;14.510;2022-11-18T16:31:14;9.30;82.90
39777;DHT22;25453;48.162;14.510;2022-11-18T16:34:12;9.30;83.00
39777;DHT22;25453;48.162;14.510;2022-11-18T16:36:41;9.30;82.80
39777;DHT22;25453;48.162;14.510;2022-11-18T16:39:17;9.20;82.90
39777;DHT22;25453;48.162;14.510;2022-11-18T16:41:46;9.20;83.00
39777;DHT22;25453;48.162;14.510;2022-11-18T16:44:21;9.20;82.80
39777;DHT22;25453;48.162;14.510;2022-11-18T16:46:51;9.20;82.80
39777;DHT22;25453;48.162;14.510;2022-11-18T16:49:26;9.20;83.00
39777;DHT22;25453;48.162;14.510;2022-11-18T16:52:01;9.10;83.10
39777;DHT22;25453;48.162;14.510;2022-11-18T16:54:30;9.10;83.10
39777;DHT22;25453;48.162;14.510;2022-11-18T16:57:11;9.10;83.20
39777;DHT22;25453;48.162;14.510;2022-11-18T16:59:44;9.10;83.30
39777;DHT22;25453;48.162;14.510;2022-11-18T17:02:12;9.10;83.40
39777;DHT22;25453;48.162;14.510;2022-11-18T17:04:47;9.10;83.50
39777;DHT22;25453;48.162;14.510;2022-11-18T17:07:14;9.10;83.60
39777;DHT22;25453;48.162;14.510;2022-11-18T17:09:49;9.10;83.70
39777;DHT22;25453;48.162;14.510;2022-11-18T17:12:16;9.10;83.70
39777;DHT22;25453;48.162;14.510;2022-11-18T17:14:51;9.10;83.90
39777;DHT22;25453;48.162;14.510;2022-11-18T17:17:19;9.00;84.00
39777;DHT22;25453;48.162;14.510;2022-11-18T17:19:53;9.10;84.00
39777;DHT22;25453;48.162;14.510;2022-11-18T17:22:20;9.10;84.10
39777;DHT22;25453;48.162;14.510;2022-11-18T17:24:55;9.10;84.20
39777;DHT22;25453;48.162;14.510;2022-11-18T17:27:31;9.10;84.20
39777;DHT22;25453;48.162;14.510;2022-11-18T17:30:06;9.10;84.20
39777;DHT22;25453;48.162;14.510;2022-11-18T17:32:47;9.10;84.30
39777;DHT22;25453;48.162;14.510;2022-11-18T17:35:16;9.10;84.30
39777;DHT22;25453;48.162;14.510;2022-11-18T17:37:49;9.10;84.30
39777;DHT22;25453;48.162;14.510;2022-11-18T17:40:23;9.10;84.40
39777;DHT22;25453;48.162;14.510;2022-11-18T17:42:51;9.10;84.50
39777;DHT22;25453;48.162;14.510;2022-11-18T17:45:26;9.10;84.50